createdAt,value
2022-10-11T00:00:18.001Z,100667.81
2022-10-11T00:03:06.718Z,100672.06
2022-10-11T00:05:55.241Z,100675.03
2022-10-11T00:08:43.702Z,100662.56
2022-10-11T00:11:33.639Z,100672.94
2022-10-11T00:14:22.047Z,100682.78
2022-10-11T00:17:10.453Z,100677.81
2022-10-11T00:19:59.076Z,100674.16
2022-10-11T00:22:49.151Z,100680.44
2022-10-11T00:25:37.800Z,100677.56
2022-10-11T00:28:27.633Z,100659.38
2022-10-11T00:31:16.882Z,100678.00
2022-10-11T00:34:05.343Z,100673.88
2022-10-11T00:36:53.793Z,100668.97
2022-10-11T00:39:42.212Z,100683.41
2022-10-11T00:42:30.686Z,100684.47
2022-10-11T00:45:48.079Z,100683.88
2022-10-11T00:48:40.798Z,100689.56
2022-10-11T00:51:37.532Z,100690.25
2022-10-11T00:54:29.268Z,100689.63
2022-10-11T00:57:20.971Z,100696.91
2022-10-11T01:00:11.963Z,100654.47
2022-10-11T01:03:01.983Z,100689.47
2022-10-11T01:05:50.708Z,100706.03
2022-10-11T01:08:39.734Z,100705.38
2022-10-11T01:11:30.431Z,100701.88
2022-10-11T01:14:42.550Z,100699.63
2022-10-11T01:17:37.818Z,100697.94
2022-10-11T01:20:35.578Z,100705.59
2022-10-11T01:24:16.792Z,100703.75
2022-10-11T01:27:36.331Z,100707.88
2022-10-11T01:30:28.311Z,100714.94
2022-10-11T01:33:24.702Z,100709.56
2022-10-11T01:36:15.968Z,100710.41
2022-10-11T01:39:07.105Z,100679.56
2022-10-11T01:41:57.490Z,100710.56
2022-10-11T01:44:47.971Z,100712.03
2022-10-11T01:47:38.986Z,100711.81
2022-10-11T01:50:40.993Z,100702.03
2022-10-11T01:53:46.676Z,100712.25
2022-10-11T01:56:54.964Z,100698.34
2022-10-11T01:59:53.045Z,100695.84
2022-10-11T02:02:54.747Z,100698.56
2022-10-11T02:05:48.567Z,100706.66
2022-10-11T02:08:40.189Z,100707.72
2022-10-11T02:11:30.258Z,100713.28
2022-10-11T02:14:20.951Z,100711.41
2022-10-11T02:17:12.061Z,100705.03
2022-10-11T02:20:05.113Z,100671.75
2022-10-11T02:22:57.697Z,100715.75
2022-10-11T02:25:46.804Z,100718.13
2022-10-11T02:28:37.595Z,100717.03
2022-10-11T02:31:26.609Z,100719.50
2022-10-11T02:34:18.686Z,100716.81
2022-10-11T02:37:13.183Z,100718.53
2022-10-11T02:40:06.049Z,100725.13
2022-10-11T02:42:58.697Z,100725.56
2022-10-11T02:45:49.989Z,100724.94
2022-10-11T02:48:39.678Z,100710.28
2022-10-11T02:51:31.199Z,100717.06
2022-10-11T02:54:20.983Z,100695.19
2022-10-11T02:57:09.545Z,100726.63
2022-10-11T02:59:57.943Z,100721.22
2022-10-11T03:02:46.392Z,100727.88
2022-10-11T03:05:40.452Z,100727.06
2022-10-11T03:08:29.143Z,100721.91
2022-10-11T03:11:18.944Z,100726.28
2022-10-11T03:14:07.457Z,100701.66
2022-10-11T03:17:00.758Z,100727.31
2022-10-11T03:20:00.681Z,100727.97
2022-10-11T03:22:49.060Z,100722.22
2022-10-11T03:25:37.602Z,100736.34
2022-10-11T03:28:27.557Z,100740.53
2022-10-11T03:31:16.037Z,100695.03
2022-10-11T03:34:04.454Z,100743.88
2022-10-11T03:36:52.888Z,100748.88
2022-10-11T03:39:41.333Z,100743.31
2022-10-11T03:42:30.128Z,100753.06
2022-10-11T03:45:19.991Z,100741.66
2022-10-11T03:48:08.407Z,100736.06
2022-10-11T03:50:56.882Z,100744.97
2022-10-11T03:53:45.349Z,100744.38
2022-10-11T03:56:33.841Z,100742.91
2022-10-11T03:59:22.230Z,100747.50
2022-10-11T04:02:12.192Z,100726.19
2022-10-11T04:05:00.659Z,100736.94
2022-10-11T04:07:49.109Z,100749.38
2022-10-11T04:10:37.547Z,100760.38
2022-10-11T04:13:25.992Z,100679.19
2022-10-11T04:16:14.426Z,100770.16
2022-10-11T04:19:04.199Z,100772.25
2022-10-11T04:21:52.660Z,100766.88
2022-10-11T04:24:41.141Z,100773.28
2022-10-11T04:27:29.847Z,100737.22
2022-10-11T04:30:18.416Z,100763.53
2022-10-11T04:33:06.823Z,100778.88
2022-10-11T04:35:57.011Z,100780.16
2022-10-11T04:38:45.431Z,100787.63
2022-10-11T04:41:34.558Z,100781.63
2022-10-11T04:44:22.964Z,100786.38
2022-10-11T04:47:11.425Z,100789.31
2022-10-11T04:49:59.908Z,100791.38
2022-10-11T04:52:49.807Z,100795.13
2022-10-11T04:55:38.234Z,100800.69
2022-10-11T04:58:26.660Z,100797.59
2022-10-11T05:01:15.944Z,100778.97
2022-10-11T05:04:04.416Z,100801.78
2022-10-11T05:06:52.887Z,100811.94
2022-10-11T05:09:42.673Z,100817.16
2022-10-11T05:12:31.217Z,100810.94
2022-10-11T05:15:20.009Z,100817.56
2022-10-11T05:18:08.490Z,100822.53
2022-10-11T05:21:01.045Z,100828.53
2022-10-11T05:23:50.566Z,100833.94
2022-10-11T05:26:40.437Z,100840.97
2022-10-11T05:29:29.020Z,100839.97
2022-10-11T05:32:17.466Z,100843.47
2022-10-11T05:35:06.958Z,100840.97
2022-10-11T05:37:55.412Z,100843.06
2022-10-11T05:40:43.867Z,100849.09
2022-10-11T05:43:33.801Z,100864.00
2022-10-11T05:46:22.339Z,100859.25
2022-10-11T05:49:10.759Z,100869.63
2022-10-11T05:51:59.222Z,100873.13
2022-10-11T05:54:47.711Z,100873.56
2022-10-11T05:57:36.163Z,100873.75
2022-10-11T06:00:26.009Z,100883.09
2022-10-11T06:03:14.747Z,100890.16
2022-10-11T06:06:03.448Z,100871.28
2022-10-11T06:08:51.968Z,100884.78
2022-10-11T06:11:41.299Z,100896.38
2022-10-11T06:14:29.805Z,100907.16
2022-10-11T06:17:19.611Z,100903.63
2022-10-11T06:20:09.131Z,100900.94
2022-10-11T06:22:59.428Z,100911.53
2022-10-11T06:25:57.204Z,100908.22
2022-10-11T06:28:45.797Z,100906.97
2022-10-11T06:31:34.313Z,100910.91
2022-10-11T06:34:24.431Z,100923.34
2022-10-11T06:37:13.014Z,100929.59
2022-10-11T06:40:01.464Z,100915.28
2022-10-11T06:42:50.355Z,100936.63
2022-10-11T06:45:38.791Z,100926.69
2022-10-11T06:48:27.640Z,100925.00
2022-10-11T06:51:18.966Z,100938.13
2022-10-11T06:54:07.730Z,100922.97
2022-10-11T06:56:56.224Z,100940.81
2022-10-11T06:59:44.752Z,100948.91
2022-10-11T07:02:33.210Z,100944.75
2022-10-11T07:05:21.765Z,100953.28
2022-10-11T07:08:11.760Z,100954.72
2022-10-11T07:11:01.576Z,100947.44
2022-10-11T07:13:50.833Z,100954.28
2022-10-11T07:16:39.279Z,100959.88
2022-10-11T07:19:27.914Z,100975.28
2022-10-11T07:22:16.381Z,100983.78
2022-10-11T07:25:07.249Z,100980.00
2022-10-11T07:27:55.668Z,100966.94
2022-10-11T07:30:44.488Z,100992.06
2022-10-11T07:33:32.991Z,100989.81
2022-10-11T07:36:23.106Z,100917.09
2022-10-11T07:39:11.530Z,100989.94
2022-10-11T07:42:01.620Z,100953.66
2022-10-11T07:44:50.039Z,100991.41
2022-10-11T07:47:38.484Z,100989.34
2022-10-11T07:50:27.734Z,100990.59
2022-10-11T07:53:16.681Z,100995.78
2022-10-11T07:56:05.639Z,100963.00
2022-10-11T07:58:57.607Z,100997.47
2022-10-11T08:01:46.655Z,101000.19
2022-10-11T08:04:35.189Z,101013.47
2022-10-11T08:07:23.609Z,101006.38
2022-10-11T08:10:12.178Z,101002.19
2022-10-11T08:13:04.210Z,101014.66
2022-10-11T08:15:54.531Z,101013.84
2022-10-11T08:18:43.195Z,101011.31
2022-10-11T08:21:32.182Z,101024.56
2022-10-11T08:24:20.959Z,100969.91
2022-10-11T08:27:09.630Z,100918.63
2022-10-11T08:29:58.049Z,101022.47
2022-10-11T08:32:47.994Z,101017.69
2022-10-11T08:35:37.234Z,101025.16
2022-10-11T08:38:26.070Z,101017.69
2022-10-11T08:41:25.418Z,101021.59
2022-10-11T08:45:05.435Z,101018.94
2022-10-11T08:47:48.638Z,101011.41
2022-10-11T08:50:37.779Z,101019.75
2022-10-11T08:53:32.602Z,100864.97
2022-10-11T08:56:22.025Z,101018.94
2022-10-11T08:59:31.652Z,101000.63
2022-10-11T09:02:39.126Z,101016.56
2022-10-11T09:05:48.755Z,101013.00
2022-10-11T09:08:45.775Z,101026.78
2022-10-11T09:11:42.645Z,101025.72
2022-10-11T09:14:56.101Z,101026.84
2022-10-11T09:18:22.830Z,101019.16
2022-10-11T09:21:20.435Z,101024.16
2022-10-11T09:24:27.353Z,101024.75
2022-10-11T09:27:29.140Z,101006.28
2022-10-11T09:30:29.233Z,101015.84
2022-10-11T09:33:20.212Z,101023.53
2022-10-11T09:36:17.712Z,101023.56
2022-10-11T09:39:09.054Z,101028.97
2022-10-11T09:42:00.277Z,101015.69
2022-10-11T09:44:54.580Z,101019.19
2022-10-11T09:47:43.137Z,101014.47
2022-10-11T09:50:32.870Z,101009.47
2022-10-11T09:53:56.444Z,101006.34
2022-10-11T09:56:46.229Z,100995.56
2022-10-11T09:59:35.529Z,100970.00
2022-10-11T10:02:25.037Z,101002.66
2022-10-11T10:05:17.198Z,101007.88
2022-10-11T10:08:26.875Z,101007.66
2022-10-11T10:11:16.158Z,100998.09
2022-10-11T10:14:04.640Z,101000.94
2022-10-11T10:17:04.435Z,101006.00
2022-10-11T10:19:55.516Z,101008.13
2022-10-11T10:22:47.822Z,101007.69
2022-10-11T10:25:43.328Z,101014.88
2022-10-11T10:28:32.207Z,101023.28
2022-10-11T10:31:23.163Z,101016.19
2022-10-11T10:34:15.224Z,101013.78
2022-10-11T10:37:07.850Z,101009.41
2022-10-11T10:40:01.605Z,101001.38
2022-10-11T10:42:51.770Z,101002.38
2022-10-11T10:46:03.405Z,100960.63
2022-10-11T10:52:44.188Z,101012.78
2022-10-11T10:55:36.403Z,101003.16
2022-10-11T10:58:52.639Z,101005.56
2022-10-11T11:01:49.821Z,100994.91
2022-10-11T11:04:38.775Z,101001.97
2022-10-11T11:07:31.103Z,101007.16
2022-10-11T11:10:22.482Z,100979.94
2022-10-11T11:13:20.543Z,100954.69
2022-10-11T11:16:17.656Z,100991.97
2022-10-11T11:19:14.681Z,100991.97
2022-10-11T11:22:08.227Z,100994.22
2022-10-11T11:25:03.402Z,100954.84
2022-10-11T11:28:00.381Z,100991.56
2022-10-11T11:30:54.197Z,100989.28
2022-10-11T11:33:54.235Z,100984.69
2022-10-11T11:36:45.549Z,100989.28
2022-10-11T11:39:36.359Z,100976.03
2022-10-11T11:42:27.712Z,100985.75
2022-10-11T11:45:20.002Z,100978.38
2022-10-11T11:48:12.955Z,100977.59
2022-10-11T11:51:06.993Z,100962.75
2022-10-11T11:54:00.163Z,100974.16
2022-10-11T11:56:57.818Z,100976.28
2022-10-11T11:59:48.486Z,100976.94
2022-10-11T12:02:44.176Z,100979.78
2022-10-11T12:05:34.372Z,100980.41
2022-10-11T12:08:28.875Z,100979.38
2022-10-11T12:11:22.575Z,100969.97
2022-10-11T12:14:38.725Z,100965.03
2022-10-11T12:17:27.344Z,100962.56
2022-10-11T12:20:17.988Z,100952.84
2022-10-11T12:23:50.062Z,100951.72
2022-10-11T12:26:42.108Z,100903.63
2022-10-11T12:29:47.398Z,100946.50
2022-10-11T12:32:51.767Z,100939.72
2022-10-11T12:36:05.622Z,100942.44
2022-10-11T12:39:38.758Z,100945.78
2022-10-11T12:42:34.340Z,100939.88
2022-10-11T12:45:32.294Z,100940.44
2022-10-11T12:48:45.203Z,100929.66
2022-10-11T12:51:37.720Z,100942.03
2022-10-11T12:55:04.993Z,100938.19
2022-10-11T12:58:25.828Z,100939.81
2022-10-11T13:01:18.648Z,100939.53
2022-10-11T13:04:08.852Z,100924.25
2022-10-11T13:07:04.424Z,100897.91
2022-10-11T13:09:55.381Z,100932.66
2022-10-11T13:12:44.706Z,100920.25
2022-10-11T13:15:35.879Z,100925.38
2022-10-11T13:18:26.466Z,100917.09
2022-10-11T13:21:23.068Z,100917.84
2022-10-11T13:24:14.303Z,100919.13
2022-10-11T13:27:03.388Z,100909.25
2022-10-11T13:29:53.207Z,100905.13
2022-10-11T13:32:43.755Z,100910.69
2022-10-11T13:35:34.898Z,100899.78
2022-10-11T13:38:27.308Z,100904.66
2022-10-11T13:41:16.463Z,100905.06
2022-10-11T13:44:05.283Z,100899.31
2022-10-11T13:46:54.184Z,100906.69
2022-10-11T13:49:47.705Z,100903.75
2022-10-11T13:52:36.210Z,100902.91
2022-10-11T13:55:27.718Z,100897.59
2022-10-11T13:58:21.474Z,100904.44
2022-10-11T14:01:19.571Z,100894.31
2022-10-11T14:04:09.994Z,100893.69
2022-10-11T14:07:02.349Z,100896.50
2022-10-11T14:09:51.031Z,100891.88
2022-10-11T14:12:43.164Z,100909.97
2022-10-11T14:15:32.971Z,100856.84
2022-10-11T14:18:48.708Z,100895.22
2022-10-11T14:21:51.102Z,100874.09
2022-10-11T14:24:42.164Z,100893.41
2022-10-11T14:27:30.907Z,100866.06
2022-10-11T14:30:25.492Z,100857.47
2022-10-11T14:33:15.305Z,100894.72
2022-10-11T14:36:04.175Z,100888.00
2022-10-11T14:38:54.044Z,100867.22
2022-10-11T14:41:43.999Z,100888.72
2022-10-11T14:44:32.434Z,100892.56
2022-10-11T14:47:20.884Z,100895.66
2022-10-11T14:50:25.708Z,100887.16
2022-10-11T14:53:14.297Z,100883.03
2022-10-11T14:56:02.981Z,100881.22
2022-10-11T14:58:52.936Z,100889.75
2022-10-11T15:01:41.436Z,100887.59
2022-10-11T15:04:30.235Z,100893.50
2022-10-11T15:07:18.723Z,100887.25
2022-10-11T15:10:19.690Z,100883.72
2022-10-11T15:13:08.892Z,100878.28
2022-10-11T15:15:58.701Z,100885.34
2022-10-11T15:18:50.791Z,100882.19
2022-10-11T15:21:39.288Z,100877.75
2022-10-11T15:24:27.938Z,100882.94
2022-10-11T15:27:17.295Z,100863.75
2022-10-11T15:30:08.416Z,100871.28
2022-10-11T15:32:58.407Z,100878.09
2022-10-11T15:35:46.826Z,100877.38
2022-10-11T15:38:35.640Z,100872.00
2022-10-11T15:41:24.222Z,100881.28
2022-10-11T15:44:12.648Z,100881.16
2022-10-11T15:47:01.107Z,100885.34
2022-10-11T15:49:50.922Z,100873.44
2022-10-11T15:52:39.441Z,100872.38
2022-10-11T15:55:27.900Z,100875.31
2022-10-11T15:58:18.767Z,100873.78
2022-10-11T16:01:09.531Z,100881.09
2022-10-11T16:03:58.337Z,100870.72
2022-10-11T16:06:48.151Z,100873.13
2022-10-11T16:09:36.616Z,100869.66
2022-10-11T16:12:25.051Z,100875.53
2022-10-11T16:15:13.670Z,100756.75
2022-10-11T16:18:02.336Z,100876.00
2022-10-11T16:20:52.437Z,100876.09
2022-10-11T16:23:42.346Z,100875.56
2022-10-11T16:26:31.561Z,100868.25
2022-10-11T16:29:19.999Z,100870.28
2022-10-11T16:32:08.678Z,100878.19
2022-10-11T16:34:57.111Z,100873.09
2022-10-11T16:37:46.090Z,100824.50
2022-10-11T16:40:36.154Z,100842.78
2022-10-11T16:43:24.633Z,100852.44
2022-10-11T16:46:13.111Z,100811.53
2022-10-11T16:49:01.601Z,100852.00
2022-10-11T16:51:50.296Z,100863.25
2022-10-11T16:54:39.395Z,100866.03
2022-10-11T16:57:29.323Z,100865.44
2022-10-11T17:00:18.308Z,100859.47
2022-10-11T17:03:07.600Z,100863.19
2022-10-11T17:05:56.151Z,100853.97
2022-10-11T17:08:44.852Z,100867.03
2022-10-11T17:11:33.828Z,100868.53
2022-10-11T17:14:23.648Z,100872.09
2022-10-11T17:17:12.857Z,100869.22
2022-10-11T17:20:02.277Z,100877.34
2022-10-11T17:22:51.403Z,100877.19
2022-10-11T17:25:43.111Z,100868.50
2022-10-11T17:28:32.175Z,100878.28
2022-10-11T17:31:22.205Z,100871.44
2022-10-11T17:34:11.106Z,100886.84
2022-10-11T17:36:59.592Z,100886.22
2022-10-11T17:39:48.094Z,100884.16
2022-10-11T17:42:36.664Z,100879.56
2022-10-11T17:45:25.173Z,100896.59
2022-10-11T17:48:14.959Z,100899.47
2022-10-11T17:51:07.172Z,100893.69
2022-10-11T17:53:55.978Z,100888.72
2022-10-11T17:56:44.449Z,100886.00
2022-10-11T17:59:32.969Z,100883.94
2022-10-11T18:02:21.475Z,100886.63
2022-10-11T18:05:14.292Z,100894.69
2022-10-11T18:08:03.577Z,100891.78
2022-10-11T18:10:52.066Z,100885.53
2022-10-11T18:13:42.897Z,100885.75
2022-10-11T18:16:32.557Z,100889.47
2022-10-11T18:19:21.154Z,100888.22
2022-10-11T18:22:11.064Z,100884.84
2022-10-11T18:24:59.562Z,100890.44
2022-10-11T18:27:48.081Z,100884.59
2022-10-11T18:30:36.621Z,100878.63
2022-10-11T18:33:25.091Z,100882.72
2022-10-11T18:36:15.327Z,100881.66
2022-10-11T18:39:07.205Z,100878.94
2022-10-11T18:41:55.672Z,100883.03
2022-10-11T18:44:44.376Z,100882.19
2022-10-11T18:47:32.819Z,100881.16
2022-10-11T18:50:21.375Z,100893.34
2022-10-11T18:53:09.851Z,100882.97
2022-10-11T18:56:00.688Z,100869.72
2022-10-11T18:58:50.315Z,100836.06
2022-10-11T19:01:40.724Z,100872.16
2022-10-11T19:04:33.154Z,100882.06
2022-10-11T19:07:21.885Z,100718.41
2022-10-11T19:10:10.721Z,100884.09
2022-10-11T19:13:00.552Z,100881.81
2022-10-11T19:15:49.069Z,100883.50
2022-10-11T19:18:43.198Z,100886.13
2022-10-11T19:21:32.672Z,100877.13
2022-10-11T19:24:22.827Z,100894.75
2022-10-11T19:27:11.305Z,100891.88
2022-10-11T19:30:01.239Z,100881.44
2022-10-11T19:32:49.706Z,100886.25
2022-10-11T19:35:38.273Z,100889.72
2022-10-11T19:38:26.825Z,100880.22
2022-10-11T19:41:16.463Z,100882.09
2022-10-11T19:44:05.392Z,100888.47
2022-10-11T19:46:55.179Z,100886.63
2022-10-11T19:49:43.627Z,100890.59
2022-10-11T19:52:32.260Z,100885.84
2022-10-11T19:55:20.883Z,100880.53
2022-10-11T19:58:09.329Z,100887.97
2022-10-11T20:01:02.756Z,100894.59
2022-10-11T20:03:54.416Z,100900.22
2022-10-11T20:06:43.177Z,100890.47
2022-10-11T20:09:31.595Z,100885.09
2022-10-11T20:12:20.044Z,100896.94
2022-10-11T20:15:09.093Z,100898.78
2022-10-11T20:17:57.887Z,100895.91
2022-10-11T20:20:53.630Z,100903.34
2022-10-11T20:23:43.541Z,100898.59
2022-10-11T20:26:33.150Z,100900.06
2022-10-11T20:29:21.619Z,100901.09
2022-10-11T20:32:10.416Z,100900.31
2022-10-11T20:34:58.918Z,100900.09
2022-10-11T20:37:48.780Z,100896.63
2022-10-11T20:40:41.041Z,100898.72
2022-10-11T20:43:29.510Z,100894.59
2022-10-11T20:46:19.470Z,100906.22
2022-10-11T20:49:09.599Z,100906.06
2022-10-11T20:51:58.132Z,100901.50
2022-10-11T20:54:47.966Z,100901.88
2022-10-11T20:57:36.712Z,100894.19
2022-10-11T21:00:25.184Z,100903.91
2022-10-11T21:03:13.863Z,100915.53
2022-10-11T21:06:02.384Z,100791.00
2022-10-11T21:08:50.839Z,100893.59
2022-10-11T21:11:40.741Z,100894.59
2022-10-11T21:14:29.286Z,100889.41
2022-10-11T21:17:17.854Z,100890.91
2022-10-11T21:20:07.239Z,100891.50
2022-10-11T21:22:55.669Z,100891.50
2022-10-11T21:25:44.140Z,100894.22
2022-10-11T21:28:34.570Z,100889.41
2022-10-11T21:31:24.338Z,100888.59
2022-10-11T21:34:12.804Z,100884.47
2022-10-11T21:37:01.249Z,100889.84
2022-10-11T21:39:49.665Z,100879.44
2022-10-11T21:42:38.512Z,100881.72
2022-10-11T21:45:28.897Z,100879.03
2022-10-11T21:48:17.404Z,100879.25
2022-10-11T21:51:06.280Z,100871.75
2022-10-11T21:53:56.102Z,100873.78
2022-10-11T21:56:44.580Z,100869.41
2022-10-11T21:59:33.037Z,100870.25
2022-10-11T22:02:22.913Z,100872.47
2022-10-11T22:05:11.322Z,100866.03
2022-10-11T22:07:59.768Z,100880.09
2022-10-11T22:10:54.387Z,100875.50
2022-10-11T22:13:43.292Z,100864.16
2022-10-11T22:16:33.454Z,100872.47
2022-10-11T22:19:23.340Z,100867.84
2022-10-11T22:22:12.085Z,100870.53
2022-10-11T22:25:00.536Z,100864.06
2022-10-11T22:27:48.978Z,100871.63
2022-10-11T22:30:37.534Z,100871.38
2022-10-11T22:33:26.126Z,100859.97
2022-10-11T22:36:18.861Z,100863.91
2022-10-11T22:39:09.931Z,100854.56
2022-10-11T22:41:58.387Z,100856.59
2022-10-11T22:44:46.838Z,100857.19
2022-10-11T22:47:35.531Z,100838.81
2022-10-11T22:50:24.152Z,100850.06
2022-10-11T22:53:14.611Z,100845.72
2022-10-11T22:56:03.026Z,100840.22
2022-10-11T22:58:51.493Z,100851.97
2022-10-11T23:01:39.934Z,100853.75
2022-10-11T23:04:28.462Z,100855.63
2022-10-11T23:07:16.901Z,100854.34
2022-10-11T23:10:07.529Z,100854.28
2022-10-11T23:12:55.947Z,100865.91
2022-10-11T23:15:44.463Z,100856.13
2022-10-11T23:18:32.952Z,100853.63
2022-10-11T23:21:21.376Z,100856.50
2022-10-11T23:24:11.486Z,100847.19
2022-10-11T23:27:01.267Z,100849.59
2022-10-11T23:29:49.688Z,100833.81
2022-10-11T23:32:38.139Z,100842.03
2022-10-11T23:35:26.655Z,100845.28
2022-10-11T23:38:15.063Z,100844.25
2022-10-11T23:41:03.502Z,100838.84
2022-10-11T23:43:53.579Z,100843.38
2022-10-11T23:46:41.999Z,100846.81
2022-10-11T23:49:30.425Z,100845.53
2022-10-11T23:52:18.905Z,100838.69
2022-10-11T23:55:07.700Z,100840.72
2022-10-11T23:57:56.159Z,100839.25
